Terminal Aerodrome Forecast
Issued by NWS

Home | Current Version | Previous Version | Text Only | Print | Product List | Glossary On
Versions: 1 2 3 4 5 6 7 8 9 10 11 12 13 14 15
564
FTUS43 KEAX 131720
TAFSTJ
TAF
KSTJ 131720Z 1318/1418 11010KT P6SM OVC060
     FM140800 16011KT P6SM OVC025
      TEMPO 1410/1414 -FZDZ BKN015
     FM141600 23011KT P6SM BKN025=

USA.gov is the U.S. government's official web portal to all federal, state and local government web resources and services.